Krasnoyarsk International Airport

UNKL · Krasnoyarskiy, 俄罗斯

METAR UNKL · Yemelyanovo Airport

29 五月 08:30 LT
21m
罗盘
风向 的 风向 的 风向 到 风向 180° Yemelyanovo Airport 11/29
风: 10 kt, 3 beaufort

4 kt

8 kt
改变
0 ft 1.000 2.000 3.000 4.000 5.000
Cloud Cloud Cloud Cloud
SCT 2.500
METAR UNKL 290130Z 18005MPS 120V240 9999 SCT025 08/02 Q1012 R29/CLRD65 NOSIG RMK QFE733

METAR Yemelyanovo Airport - UNKL/KJA

Yemelyanovo Airport是,俄罗斯中的大型机场。 该机场位于纬度56,17295和经度92,49330。 该机场有一条跑道: 11/29. 本场的ICAO机场代码为UNKL。 该机场的IATA代码为KJA。 机场在Krasnoyarsk FIR中。

该航空气象观测是针对Yemelyanovo Airport在2024年5月29日 08:30, 当地时间进行的。

机场观察

风向为180°,速度为10 kt。 风向在120°和240°之间变化。

可见度为10 km 或者更多。

有疏云,零星散落的云朵在2.500 ft的高度。 没有观察到天花板。

温度为8 °C,阵风为3 °C。 露点为2 °C,相对湿度为66%。 海平面上的气压为1012 hPa (QNH)。

白天

今天,太阳从04:13升起,在21:21降落。 这适用于Yemelyanovo Airport,世界夏令时可能有所不同。 当地时间与世界标准时间之间的时差为+7 小时。 夏令时目前正在进行中。

公司介绍

我们没有关于这个机场的公司信息。

体会

到Vliegles.nl去找飞行课程,跳伞和其他飞行体验。 浏览页面,了解Yemelyanovo Airport附近所有可用的活动。 你也可以使用搜索功能来寻找你所在地附近的特定飞行课程、跳伞或其他飞行体验。

警示语

跑道状况 RWY 29: 干燥, 摩擦系数 0.65

跑道

Id 标题 侧风 逆风 侧风 %
11/29 113°-293° 8 kt 4 kt 92 %

逆风成分最大的方向会被突出显示,并用于横风计算。 这并不一定意味着这个方向在使用。

乌云

2.500 ft SCT 疏云,零星散落的云朵

温度 & 天气

温度 8 °C
露点 2 °C
相对湿度 66%
风寒 3 °C
Kp-index 0 (0-9)

跑道状况

29 干燥, 摩擦系数 0.65

评论

QFE733未知降水 结束于 73, 结束于

白天

日出
04:13
中午
12:47
日落
21:21 (12:30)

小工具

你想在你的网站上有一个关于Yemelyanovo Airport的当前航空天气(METAR)的小部件吗?

显示HTML代码
报告变更